createdAt,value
2022-07-29T00:01:53.432Z,7.43
2022-07-29T00:04:21.404Z,7.32
2022-07-29T00:06:48.556Z,6.53
2022-07-29T00:09:15.572Z,7.07
2022-07-29T00:11:42.220Z,6.72
2022-07-29T00:14:09.561Z,6.93
2022-07-29T00:16:37.012Z,8.05
2022-07-29T00:19:04.551Z,7.22
2022-07-29T00:21:31.162Z,7.45
2022-07-29T00:23:57.924Z,7.07
2022-07-29T00:26:24.499Z,6.07
2022-07-29T00:28:51.117Z,6.65
2022-07-29T00:31:17.786Z,6.65
2022-07-29T00:33:44.508Z,6.93
2022-07-29T00:36:11.079Z,6.22
2022-07-29T00:38:37.653Z,6.47
2022-07-29T00:41:04.335Z,6.22
2022-07-29T00:43:30.972Z,6.13
2022-07-29T00:45:57.589Z,6.28
2022-07-29T00:48:24.179Z,6.57
2022-07-29T00:50:51.380Z,7.07
2022-07-29T00:53:20.596Z,6.63
2022-07-29T00:55:47.201Z,6.57
2022-07-29T00:58:15.013Z,6.32
2022-07-29T01:00:42.976Z,6.68
2022-07-29T01:03:12.263Z,6.07
2022-07-29T01:05:48.142Z,6.28
2022-07-29T01:08:18.473Z,6.63
2022-07-29T01:10:46.533Z,5.97
2022-07-29T01:13:13.875Z,6.20
2022-07-29T01:15:49.280Z,6.85
2022-07-29T01:18:25.181Z,6.57
2022-07-29T01:21:26.887Z,7.38
2022-07-29T01:23:59.414Z,6.82
2022-07-29T01:26:32.793Z,7.50
2022-07-29T01:29:08.499Z,6.57
2022-07-29T01:32:03.678Z,6.68
2022-07-29T01:34:46.550Z,7.18
2022-07-29T01:37:30.667Z,6.07
2022-07-29T01:39:59.887Z,6.78
2022-07-29T01:42:37.786Z,6.40
2022-07-29T01:45:12.289Z,7.22
2022-07-29T01:47:46.298Z,7.07
2022-07-29T01:50:17.299Z,7.65
2022-07-29T01:52:50.710Z,6.90
2022-07-29T01:55:20.936Z,8.00
2022-07-29T01:57:49.531Z,7.38
2022-07-29T02:00:17.627Z,7.50
2022-07-29T02:02:46.859Z,7.93
2022-07-29T02:05:16.990Z,7.40
2022-07-29T02:07:45.464Z,7.30
2022-07-29T02:10:13.858Z,7.40
2022-07-29T02:12:43.673Z,7.35
2022-07-29T02:15:17.976Z,7.55
2022-07-29T02:17:59.607Z,7.65
2022-07-29T02:20:28.770Z,8.18
2022-07-29T02:22:57.984Z,7.53
2022-07-29T02:25:25.710Z,7.97
2022-07-29T02:28:06.315Z,7.78
2022-07-29T02:30:34.035Z,6.60
2022-07-29T02:33:02.025Z,7.65
2022-07-29T02:35:34.557Z,7.80
2022-07-29T02:38:22.592Z,7.28
2022-07-29T02:40:51.647Z,7.25
2022-07-29T02:43:18.747Z,7.85
2022-07-29T02:45:48.360Z,7.00
2022-07-29T02:48:23.486Z,6.88
2022-07-29T02:50:55.703Z,6.60
2022-07-29T02:53:26.298Z,6.72
2022-07-29T02:55:57.808Z,7.20
2022-07-29T02:58:39.305Z,6.85
2022-07-29T03:01:19.340Z,6.95
2022-07-29T03:03:51.630Z,6.35
2022-07-29T03:06:28.210Z,7.28
2022-07-29T03:09:09.122Z,6.50
2022-07-29T03:11:42.310Z,6.90
2022-07-29T03:14:18.512Z,7.15
2022-07-29T03:16:46.080Z,7.18
2022-07-29T03:19:12.918Z,6.63
2022-07-29T03:21:40.075Z,6.88
2022-07-29T03:24:10.535Z,6.03
2022-07-29T03:26:37.882Z,7.28
2022-07-29T03:29:04.500Z,7.32
2022-07-29T03:31:32.154Z,6.88
2022-07-29T03:34:00.425Z,7.20
2022-07-29T03:36:27.213Z,6.70
2022-07-29T03:38:54.300Z,6.53
2022-07-29T03:41:23.821Z,6.90
2022-07-29T03:43:52.487Z,7.15
2022-07-29T03:46:21.989Z,6.80
2022-07-29T03:48:51.557Z,6.45
2022-07-29T03:51:18.377Z,7.57
2022-07-29T03:54:00.186Z,6.70
2022-07-29T03:56:29.068Z,7.40
2022-07-29T03:58:56.612Z,7.45
2022-07-29T04:01:23.870Z,7.88
2022-07-29T04:03:50.736Z,7.55
2022-07-29T04:06:17.381Z,6.90
2022-07-29T04:08:43.994Z,7.47
2022-07-29T04:11:10.683Z,7.75
2022-07-29T04:13:37.963Z,7.20
2022-07-29T04:16:04.868Z,6.38
2022-07-29T04:18:31.553Z,7.55
2022-07-29T04:21:01.706Z,7.32
2022-07-29T04:23:33.462Z,6.78
2022-07-29T04:26:02.021Z,6.72
2022-07-29T04:28:28.595Z,6.68
2022-07-29T04:30:55.254Z,6.65
2022-07-29T04:33:28.100Z,7.72
2022-07-29T04:35:55.043Z,6.70
2022-07-29T04:38:23.172Z,6.90
2022-07-29T04:40:49.973Z,6.90
2022-07-29T04:43:16.875Z,6.25
2022-07-29T04:45:49.362Z,7.03
2022-07-29T04:48:16.045Z,6.78
2022-07-29T04:50:43.262Z,7.00
2022-07-29T04:54:02.267Z,6.63
2022-07-29T04:56:28.969Z,7.20
2022-07-29T04:59:17.340Z,6.63
2022-07-29T05:02:08.435Z,6.63
2022-07-29T05:04:34.973Z,7.63
2022-07-29T05:07:01.508Z,6.32
2022-07-29T05:09:28.066Z,6.82
2022-07-29T05:11:54.738Z,6.30
2022-07-29T05:14:21.319Z,6.85
2022-07-29T05:16:48.058Z,6.90
2022-07-29T05:19:14.936Z,6.43
2022-07-29T05:21:41.677Z,6.25
2022-07-29T05:24:09.204Z,5.85
2022-07-29T05:26:35.796Z,6.07
2022-07-29T05:29:02.466Z,7.25
2022-07-29T05:31:29.069Z,6.47
2022-07-29T05:33:55.704Z,6.70
2022-07-29T05:36:23.357Z,6.70
2022-07-29T05:38:50.061Z,6.70
2022-07-29T05:41:16.599Z,7.57
2022-07-29T05:43:43.236Z,7.40
2022-07-29T05:46:09.850Z,7.85
2022-07-29T05:48:36.870Z,7.00
2022-07-29T05:51:03.789Z,8.48
2022-07-29T05:53:30.381Z,7.15
2022-07-29T05:55:57.071Z,7.13
2022-07-29T05:58:24.197Z,8.35
2022-07-29T06:00:50.823Z,8.02
2022-07-29T06:03:17.417Z,8.45
2022-07-29T06:05:44.072Z,8.25
2022-07-29T06:08:10.720Z,9.55
2022-07-29T06:10:37.510Z,8.73
2022-07-29T06:13:04.286Z,8.02
2022-07-29T06:15:31.298Z,8.02
2022-07-29T06:18:00.578Z,8.30
2022-07-29T06:20:32.021Z,8.98
2022-07-29T06:22:59.730Z,9.13
2022-07-29T06:25:27.152Z,7.75
2022-07-29T06:27:53.824Z,8.30
2022-07-29T06:30:20.601Z,8.45
2022-07-29T06:32:47.805Z,8.95
2022-07-29T06:38:01.345Z,7.00
2022-07-29T06:40:46.493Z,7.70
2022-07-29T06:43:13.139Z,8.32
2022-07-29T06:45:42.474Z,8.77
2022-07-29T06:48:10.565Z,7.10
2022-07-29T06:50:37.452Z,7.57
2022-07-29T06:53:04.624Z,7.50
2022-07-29T06:55:31.383Z,8.55
2022-07-29T06:57:58.050Z,7.03
2022-07-29T07:00:24.945Z,8.27
2022-07-29T07:02:51.772Z,9.25
2022-07-29T07:05:18.442Z,7.38
2022-07-29T07:07:45.240Z,8.90
2022-07-29T07:10:11.909Z,7.88
2022-07-29T07:12:38.576Z,8.65
2022-07-29T07:15:05.941Z,8.95
2022-07-29T07:17:32.671Z,9.15
2022-07-29T07:19:59.301Z,8.02
2022-07-29T07:22:25.918Z,9.48
2022-07-29T07:24:52.577Z,7.82
2022-07-29T07:27:19.309Z,8.23
2022-07-29T07:29:45.920Z,8.13
2022-07-29T07:32:14.180Z,10.68
2022-07-29T07:34:40.857Z,9.07
2022-07-29T07:37:07.474Z,9.15
2022-07-29T07:39:34.080Z,9.10
2022-07-29T07:42:00.673Z,9.90
2022-07-29T07:44:27.347Z,9.27
2022-07-29T07:46:54.656Z,9.52
2022-07-29T07:49:22.171Z,8.68
2022-07-29T07:51:50.571Z,10.25
2022-07-29T07:54:18.714Z,9.02
2022-07-29T07:56:50.844Z,9.05
2022-07-29T07:59:20.485Z,9.75
2022-07-29T08:01:47.831Z,9.60
2022-07-29T08:04:27.559Z,10.10
2022-07-29T08:06:56.699Z,8.40
2022-07-29T08:09:30.993Z,9.45
2022-07-29T08:11:59.514Z,8.27
2022-07-29T08:14:26.419Z,9.23
2022-07-29T08:16:53.085Z,8.43
2022-07-29T08:19:20.018Z,9.00
2022-07-29T08:21:46.636Z,9.52
2022-07-29T08:24:31.853Z,8.68
2022-07-29T08:26:58.617Z,9.35
2022-07-29T08:29:25.376Z,8.27
2022-07-29T08:31:52.206Z,9.73
2022-07-29T08:34:19.041Z,7.95
2022-07-29T08:36:52.975Z,8.50
2022-07-29T08:39:19.596Z,6.88
2022-07-29T08:41:57.399Z,7.85
2022-07-29T08:44:30.872Z,9.75
2022-07-29T08:46:58.092Z,8.23
2022-07-29T08:49:24.839Z,8.07
2022-07-29T08:51:52.214Z,8.52
2022-07-29T08:54:19.657Z,7.78
2022-07-29T08:56:50.978Z,7.65
2022-07-29T08:59:20.989Z,6.90
2022-07-29T09:01:49.426Z,6.67
2022-07-29T09:04:17.239Z,7.95
2022-07-29T09:06:47.175Z,7.45
2022-07-29T09:09:14.786Z,9.82
2022-07-29T09:12:00.110Z,7.75
2022-07-29T09:14:26.818Z,7.68
2022-07-29T09:16:57.613Z,6.93
2022-07-29T09:19:32.315Z,9.02
2022-07-29T09:22:03.833Z,7.15
2022-07-29T09:24:44.323Z,7.28
2022-07-29T09:27:24.683Z,7.70
2022-07-29T09:30:01.269Z,8.43
2022-07-29T09:32:29.400Z,8.88
2022-07-29T09:35:16.248Z,7.45
2022-07-29T09:37:44.109Z,8.77
2022-07-29T09:40:26.029Z,8.60
2022-07-29T09:42:55.113Z,8.32
2022-07-29T09:45:33.000Z,7.35
2022-07-29T09:48:03.814Z,8.00
2022-07-29T09:50:41.172Z,7.55
2022-07-29T09:53:10.381Z,7.00
2022-07-29T09:55:53.161Z,7.57
2022-07-29T09:58:22.202Z,7.03
2022-07-29T10:00:50.750Z,7.55
2022-07-29T10:03:18.398Z,6.60
2022-07-29T10:05:46.491Z,7.70
2022-07-29T10:08:13.801Z,6.03
2022-07-29T10:10:43.988Z,6.72
2022-07-29T10:13:15.760Z,6.77
2022-07-29T10:15:46.396Z,7.40
2022-07-29T10:18:14.888Z,6.28
2022-07-29T10:20:42.269Z,6.38
2022-07-29T10:23:10.232Z,6.10
2022-07-29T10:25:36.968Z,7.28
2022-07-29T10:28:03.810Z,7.50
2022-07-29T10:30:30.572Z,7.20
2022-07-29T10:33:19.710Z,7.28
2022-07-29T10:35:58.451Z,6.75
2022-07-29T10:38:45.622Z,6.95
2022-07-29T10:41:49.907Z,6.15
2022-07-29T10:44:23.224Z,6.60
2022-07-29T10:46:52.124Z,7.30
2022-07-29T10:52:13.276Z,6.68
2022-07-29T10:54:48.814Z,6.10
2022-07-29T10:57:54.699Z,6.97
2022-07-29T11:00:17.023Z,6.68
2022-07-29T11:02:45.973Z,6.55
2022-07-29T11:05:20.607Z,6.43
2022-07-29T11:08:20.021Z,6.32
2022-07-29T11:11:22.265Z,6.72
2022-07-29T11:13:54.199Z,6.55
2022-07-29T11:16:26.570Z,6.75
2022-07-29T11:19:13.419Z,6.22
2022-07-29T11:21:53.696Z,6.10
2022-07-29T11:24:29.367Z,6.28
2022-07-29T11:27:10.389Z,6.15
2022-07-29T11:29:41.442Z,6.35
2022-07-29T11:32:22.509Z,6.18
2022-07-29T11:35:17.093Z,6.57
2022-07-29T11:37:55.324Z,6.32
2022-07-29T11:40:24.897Z,5.90
2022-07-29T11:42:52.561Z,5.90
2022-07-29T11:45:44.412Z,6.32
2022-07-29T11:48:31.788Z,5.90
2022-07-29T11:51:00.706Z,6.20
2022-07-29T11:53:29.148Z,6.00
2022-07-29T11:56:00.190Z,5.75
2022-07-29T11:58:27.241Z,6.15
2022-07-29T12:00:55.563Z,6.30
2022-07-29T12:06:15.461Z,5.60
2022-07-29T12:08:45.536Z,6.05
2022-07-29T12:11:17.936Z,5.75
2022-07-29T12:13:47.674Z,6.38
2022-07-29T12:16:16.013Z,6.47
2022-07-29T12:19:02.876Z,6.32
2022-07-29T12:21:53.881Z,5.93
2022-07-29T12:24:26.944Z,6.20
2022-07-29T12:26:59.003Z,6.13
2022-07-29T12:29:35.059Z,6.07
2022-07-29T12:32:04.884Z,6.78
2022-07-29T12:34:32.315Z,6.03
2022-07-29T12:36:59.075Z,5.97
2022-07-29T12:39:28.946Z,6.25
2022-07-29T12:42:04.076Z,6.00
2022-07-29T12:44:52.478Z,6.20
2022-07-29T12:47:20.415Z,5.47
2022-07-29T12:49:47.848Z,6.45
2022-07-29T12:52:37.429Z,6.40
2022-07-29T12:55:05.123Z,5.80
2022-07-29T12:57:32.966Z,6.50
2022-07-29T13:00:06.130Z,6.07
2022-07-29T13:02:32.821Z,6.63
2022-07-29T13:05:01.289Z,6.25
2022-07-29T13:07:54.418Z,5.75
2022-07-29T13:10:24.585Z,6.00
2022-07-29T13:13:09.087Z,6.30
2022-07-29T13:15:36.603Z,5.97
2022-07-29T13:18:03.803Z,6.32
2022-07-29T13:20:30.961Z,6.15
2022-07-29T13:22:59.429Z,6.15
2022-07-29T13:25:33.122Z,5.95
2022-07-29T13:28:01.017Z,5.78
2022-07-29T13:30:28.169Z,6.50
2022-07-29T13:32:56.119Z,5.50
2022-07-29T13:35:23.041Z,6.20
2022-07-29T13:37:49.659Z,5.95
2022-07-29T13:40:18.786Z,5.95
2022-07-29T13:42:45.465Z,6.95
2022-07-29T13:45:14.253Z,5.38
2022-07-29T13:47:46.009Z,5.90
2022-07-29T13:50:19.595Z,6.93
2022-07-29T13:52:46.234Z,6.05
2022-07-29T13:55:12.866Z,6.47
2022-07-29T13:57:39.508Z,6.05
2022-07-29T14:00:07.569Z,6.13
2022-07-29T14:02:34.652Z,5.68
2022-07-29T14:05:06.162Z,5.70
2022-07-29T14:07:34.739Z,5.90
2022-07-29T14:10:01.408Z,6.07
2022-07-29T14:12:28.260Z,5.72
2022-07-29T14:14:54.992Z,6.00
2022-07-29T14:17:21.747Z,6.15
2022-07-29T14:19:48.446Z,6.10
2022-07-29T14:22:15.590Z,6.05
2022-07-29T14:24:43.072Z,5.30
2022-07-29T14:27:09.718Z,5.88
2022-07-29T14:29:38.312Z,6.00
2022-07-29T14:32:10.106Z,5.95
2022-07-29T14:34:37.724Z,6.45
2022-07-29T14:37:06.773Z,5.25
2022-07-29T14:39:42.161Z,6.20
2022-07-29T14:42:11.555Z,5.47
2022-07-29T14:44:39.733Z,6.18
2022-07-29T14:47:07.628Z,6.63
2022-07-29T14:49:36.163Z,6.63
2022-07-29T14:52:03.522Z,5.60
2022-07-29T14:54:30.383Z,6.10
2022-07-29T14:57:00.086Z,6.05
2022-07-29T14:59:27.392Z,7.50
2022-07-29T15:01:54.248Z,6.32
2022-07-29T15:04:21.095Z,7.32
2022-07-29T15:06:47.891Z,7.00
2022-07-29T15:09:14.745Z,6.68
2022-07-29T15:11:41.308Z,7.53
2022-07-29T15:14:08.084Z,6.03
2022-07-29T15:16:38.056Z,6.63
2022-07-29T15:19:05.809Z,7.30
2022-07-29T15:21:32.848Z,7.22
2022-07-29T15:23:59.795Z,7.97
2022-07-29T15:26:27.048Z,7.53
2022-07-29T15:28:54.030Z,7.80
2022-07-29T15:31:20.688Z,8.18
2022-07-29T15:33:48.686Z,7.90
2022-07-29T15:36:35.741Z,7.93
2022-07-29T15:39:02.267Z,7.75
2022-07-29T15:41:29.038Z,7.72
2022-07-29T15:43:55.825Z,7.63
2022-07-29T15:46:41.086Z,8.85
2022-07-29T15:49:08.252Z,7.53
2022-07-29T15:51:35.178Z,7.18
2022-07-29T15:54:03.892Z,8.05
2022-07-29T15:56:33.429Z,7.25
2022-07-29T15:59:00.317Z,8.05
2022-07-29T16:01:28.170Z,7.88
2022-07-29T16:03:55.397Z,7.45
2022-07-29T16:06:22.914Z,6.68
2022-07-29T16:08:49.879Z,7.80
2022-07-29T16:11:16.628Z,6.70
2022-07-29T16:13:43.426Z,9.15
2022-07-29T16:16:10.401Z,8.20
2022-07-29T16:18:37.247Z,8.00
2022-07-29T16:21:04.011Z,6.80
2022-07-29T16:23:30.748Z,7.22
2022-07-29T16:26:00.024Z,7.35
2022-07-29T16:28:30.441Z,6.80
2022-07-29T16:30:58.038Z,6.90
2022-07-29T16:33:24.849Z,7.22
2022-07-29T16:35:51.974Z,7.32
2022-07-29T16:38:19.134Z,7.10
2022-07-29T16:40:45.847Z,7.30
2022-07-29T16:43:12.692Z,6.55
2022-07-29T16:45:45.541Z,8.07
2022-07-29T16:48:14.696Z,6.93
2022-07-29T16:50:43.319Z,7.55
2022-07-29T16:53:10.561Z,7.32
2022-07-29T16:55:37.301Z,6.20
2022-07-29T16:58:04.167Z,6.97
2022-07-29T17:03:05.892Z,7.35
2022-07-29T17:05:50.479Z,6.15
2022-07-29T17:08:20.229Z,6.63
2022-07-29T17:10:47.352Z,6.68
2022-07-29T17:13:14.441Z,7.00
2022-07-29T17:15:43.098Z,6.50
2022-07-29T17:18:12.599Z,6.68
2022-07-29T17:20:41.593Z,6.30
2022-07-29T17:23:08.443Z,6.88
2022-07-29T17:25:35.260Z,6.32
2022-07-29T17:28:01.966Z,7.35
2022-07-29T17:30:29.809Z,7.22
2022-07-29T17:32:56.590Z,6.45
2022-07-29T17:35:41.736Z,6.60
2022-07-29T17:38:08.429Z,7.03
2022-07-29T17:40:35.193Z,6.82
2022-07-29T17:43:01.898Z,7.30
2022-07-29T17:45:48.704Z,6.53
2022-07-29T17:48:15.477Z,6.97
2022-07-29T17:50:42.368Z,6.78
2022-07-29T17:53:10.777Z,6.13
2022-07-29T17:55:45.394Z,7.03
2022-07-29T17:58:12.674Z,7.05
2022-07-29T18:00:39.432Z,7.70
2022-07-29T18:03:06.536Z,6.43
2022-07-29T18:05:33.819Z,7.05
2022-07-29T18:08:01.045Z,7.75
2022-07-29T18:10:27.765Z,6.57
2022-07-29T18:12:54.752Z,6.82
2022-07-29T18:15:21.502Z,5.63
2022-07-29T18:17:53.989Z,5.70
2022-07-29T18:20:25.941Z,6.72
2022-07-29T18:22:53.121Z,6.15
2022-07-29T18:25:20.003Z,6.43
2022-07-29T18:27:46.664Z,6.22
2022-07-29T18:30:15.257Z,6.18
2022-07-29T18:32:54.369Z,5.55
2022-07-29T18:35:29.289Z,6.43
2022-07-29T18:38:01.579Z,6.28
2022-07-29T18:40:29.954Z,6.88
2022-07-29T18:42:57.288Z,5.95
2022-07-29T18:45:28.364Z,6.07
2022-07-29T18:47:57.089Z,6.32
2022-07-29T18:50:29.614Z,6.10
2022-07-29T18:53:01.262Z,6.60
2022-07-29T18:55:27.993Z,7.28
2022-07-29T18:57:57.123Z,6.03
2022-07-29T19:00:26.180Z,6.07
2022-07-29T19:02:53.243Z,6.70
2022-07-29T19:05:20.722Z,6.35
2022-07-29T19:07:47.408Z,6.60
2022-07-29T19:10:14.053Z,6.30
2022-07-29T19:12:41.341Z,6.20
2022-07-29T19:15:10.702Z,6.20
2022-07-29T19:17:38.771Z,6.18
2022-07-29T19:20:07.306Z,6.10
2022-07-29T19:22:34.601Z,6.43
2022-07-29T19:25:01.791Z,5.72
2022-07-29T19:27:28.850Z,7.30
2022-07-29T19:29:59.385Z,6.20
2022-07-29T19:32:26.780Z,7.28
2022-07-29T19:35:12.328Z,7.18
2022-07-29T19:37:39.164Z,7.97
2022-07-29T19:40:06.863Z,6.63
2022-07-29T19:42:34.096Z,7.07
2022-07-29T19:45:00.847Z,7.82
2022-07-29T19:47:27.543Z,6.90
2022-07-29T19:49:55.363Z,7.20
2022-07-29T19:52:22.185Z,6.70
2022-07-29T19:54:48.840Z,5.97
2022-07-29T19:57:15.582Z,8.02
2022-07-29T19:59:44.504Z,8.52
2022-07-29T20:02:12.583Z,7.57
2022-07-29T20:04:39.899Z,7.85
2022-07-29T20:07:07.419Z,7.45
2022-07-29T20:09:36.819Z,7.20
2022-07-29T20:12:04.822Z,8.05
2022-07-29T20:14:31.657Z,6.57
2022-07-29T20:16:58.616Z,7.18
2022-07-29T20:19:28.112Z,7.75
2022-07-29T20:21:54.860Z,7.05
2022-07-29T20:24:21.897Z,7.90
2022-07-29T20:26:49.582Z,7.32
2022-07-29T20:29:16.686Z,7.45
2022-07-29T20:31:43.446Z,8.85
2022-07-29T20:34:14.361Z,6.80
2022-07-29T20:36:41.538Z,7.47
2022-07-29T20:39:10.225Z,6.95
2022-07-29T20:41:36.957Z,7.22
2022-07-29T20:44:04.448Z,7.78
2022-07-29T20:46:31.436Z,8.18
2022-07-29T20:48:58.257Z,8.40
2022-07-29T20:51:25.646Z,9.32
2022-07-29T20:53:52.625Z,9.65
2022-07-29T20:56:19.661Z,9.45
2022-07-29T20:58:46.583Z,10.27
2022-07-29T21:01:13.438Z,10.70
2022-07-29T21:03:41.069Z,11.32
2022-07-29T21:06:09.131Z,13.45
2022-07-29T21:08:35.866Z,13.20
2022-07-29T21:11:02.603Z,12.60
2022-07-29T21:13:29.605Z,11.73
2022-07-29T21:16:02.705Z,13.65
2022-07-29T21:18:33.008Z,13.32
2022-07-29T21:21:01.183Z,12.82
2022-07-29T21:23:28.351Z,13.00
2022-07-29T21:25:57.781Z,12.80
2022-07-29T21:28:29.528Z,13.65
2022-07-29T21:30:59.104Z,14.63
2022-07-29T21:33:29.329Z,13.52
2022-07-29T21:38:43.999Z,16.33
2022-07-29T21:41:12.674Z,14.13
2022-07-29T21:43:41.731Z,15.50
2022-07-29T21:46:09.401Z,16.10
2022-07-29T21:48:37.102Z,15.68
2022-07-29T21:51:06.299Z,19.60
2022-07-29T21:53:32.997Z,18.05
2022-07-29T21:56:03.118Z,18.52
2022-07-29T21:58:33.295Z,16.25
2022-07-29T22:01:00.360Z,15.45
2022-07-29T22:03:27.053Z,13.85
2022-07-29T22:05:54.272Z,15.18
2022-07-29T22:08:23.167Z,15.65
2022-07-29T22:10:52.735Z,15.95
2022-07-29T22:13:19.391Z,14.98
2022-07-29T22:15:48.582Z,15.63
2022-07-29T22:18:20.629Z,14.20
2022-07-29T22:20:48.933Z,14.73
2022-07-29T22:23:15.742Z,16.80
2022-07-29T22:25:42.455Z,16.20
2022-07-29T22:28:09.196Z,16.50
2022-07-29T22:30:37.465Z,14.73
2022-07-29T22:33:04.301Z,16.15
2022-07-29T22:35:31.106Z,15.98
2022-07-29T22:37:58.087Z,14.85
2022-07-29T22:40:30.485Z,13.52
2022-07-29T22:42:57.990Z,14.77
2022-07-29T22:45:25.976Z,14.00
2022-07-29T22:47:59.107Z,13.65
2022-07-29T22:50:26.565Z,13.25
2022-07-29T22:52:53.653Z,13.43
2022-07-29T22:55:21.335Z,12.70
2022-07-29T22:57:48.051Z,12.60
2022-07-29T23:00:15.141Z,13.38
2022-07-29T23:02:41.946Z,12.18
2022-07-29T23:05:12.357Z,15.50
2022-07-29T23:07:39.015Z,14.20
2022-07-29T23:10:06.515Z,14.88
2022-07-29T23:12:33.142Z,14.68
2022-07-29T23:14:59.978Z,15.38
2022-07-29T23:17:26.649Z,15.32
2022-07-29T23:19:53.440Z,16.17
2022-07-29T23:22:22.837Z,16.38
2022-07-29T23:24:49.597Z,16.23
2022-07-29T23:27:16.266Z,16.63
2022-07-29T23:29:43.193Z,18.00
2022-07-29T23:32:09.859Z,17.08
2022-07-29T23:34:36.674Z,15.80
2022-07-29T23:37:03.693Z,15.05
2022-07-29T23:39:30.560Z,14.90
2022-07-29T23:41:57.239Z,14.18
2022-07-29T23:44:24.166Z,14.48
2022-07-29T23:46:51.052Z,13.82
2022-07-29T23:49:17.870Z,13.73
2022-07-29T23:51:44.780Z,13.27
2022-07-29T23:54:11.501Z,15.15
2022-07-29T23:56:38.310Z,12.57
2022-07-29T23:59:05.903Z,13.48
